sensor_id;sensor_type;location;lat;lon;timestamp;temperature;humidity
25973;DHT22;13765;51.166;4.466;2023-03-01T00:00:04;0.70;99.90
25973;DHT22;13765;51.166;4.466;2023-03-01T00:02:35;0.70;99.90
25973;DHT22;13765;51.166;4.466;2023-03-01T00:05:03;0.70;99.90
25973;DHT22;13765;51.166;4.466;2023-03-01T00:07:32;0.80;99.90
25973;DHT22;13765;51.166;4.466;2023-03-01T00:09:58;0.80;99.90
25973;DHT22;13765;51.166;4.466;2023-03-01T00:12:26;0.80;99.90
25973;DHT22;13765;51.166;4.466;2023-03-01T00:14:53;0.80;99.90
25973;DHT22;13765;51.166;4.466;2023-03-01T00:17:18;0.70;99.90
25973;DHT22;13765;51.166;4.466;2023-03-01T00:19:44;0.70;99.90
25973;DHT22;13765;51.166;4.466;2023-03-01T00:22:12;0.70;99.90
25973;DHT22;13765;51.166;4.466;2023-03-01T00:24:40;0.60;99.90
25973;DHT22;13765;51.166;4.466;2023-03-01T00:27:05;0.60;99.90
25973;DHT22;13765;51.166;4.466;2023-03-01T00:29:31;0.60;99.90
25973;DHT22;13765;51.166;4.466;2023-03-01T00:31:56;0.60;99.90
25973;DHT22;13765;51.166;4.466;2023-03-01T00:34:22;0.60;99.90
25973;DHT22;13765;51.166;4.466;2023-03-01T00:36:48;0.50;99.90
25973;DHT22;13765;51.166;4.466;2023-03-01T00:39:14;0.60;99.90
25973;DHT22;13765;51.166;4.466;2023-03-01T00:41:41;0.60;99.90
25973;DHT22;13765;51.166;4.466;2023-03-01T00:44:10;0.60;99.90
25973;DHT22;13765;51.166;4.466;2023-03-01T00:46:38;0.60;99.90
25973;DHT22;13765;51.166;4.466;2023-03-01T00:49:08;0.50;99.90
25973;DHT22;13765;51.166;4.466;2023-03-01T00:51:34;0.50;99.90
25973;DHT22;13765;51.166;4.466;2023-03-01T00:54:01;0.40;99.90
25973;DHT22;13765;51.166;4.466;2023-03-01T00:56:32;0.60;99.90
25973;DHT22;13765;51.166;4.466;2023-03-01T00:58:58;0.40;99.90
25973;DHT22;13765;51.166;4.466;2023-03-01T01:01:28;0.50;99.90
25973;DHT22;13765;51.166;4.466;2023-03-01T01:04:04;0.50;99.90
25973;DHT22;13765;51.166;4.466;2023-03-01T01:06:41;0.40;99.90
25973;DHT22;13765;51.166;4.466;2023-03-01T01:09:13;0.40;99.90
25973;DHT22;13765;51.166;4.466;2023-03-01T01:11:47;0.40;99.90
25973;DHT22;13765;51.166;4.466;2023-03-01T01:14:13;0.40;99.90
25973;DHT22;13765;51.166;4.466;2023-03-01T01:16:41;0.40;99.90
25973;DHT22;13765;51.166;4.466;2023-03-01T01:19:07;0.40;99.90
25973;DHT22;13765;51.166;4.466;2023-03-01T01:21:33;0.50;99.90
25973;DHT22;13765;51.166;4.466;2023-03-01T01:23:59;0.40;99.90
25973;DHT22;13765;51.166;4.466;2023-03-01T01:26:30;0.30;99.90
25973;DHT22;13765;51.166;4.466;2023-03-01T01:28:59;0.30;99.90
25973;DHT22;13765;51.166;4.466;2023-03-01T01:31:28;0.30;99.90
25973;DHT22;13765;51.166;4.466;2023-03-01T01:33:55;0.30;99.90
25973;DHT22;13765;51.166;4.466;2023-03-01T01:36:21;0.30;99.90
25973;DHT22;13765;51.166;4.466;2023-03-01T01:38:47;0.30;99.90
25973;DHT22;13765;51.166;4.466;2023-03-01T01:41:15;0.30;99.90
25973;DHT22;13765;51.166;4.466;2023-03-01T01:43:47;0.20;99.90
25973;DHT22;13765;51.166;4.466;2023-03-01T01:48:48;0.20;99.90
25973;DHT22;13765;51.166;4.466;2023-03-01T01:51:24;0.20;99.90
25973;DHT22;13765;51.166;4.466;2023-03-01T01:53:54;0.20;99.90
25973;DHT22;13765;51.166;4.466;2023-03-01T01:56:21;0.10;99.90
25973;DHT22;13765;51.166;4.466;2023-03-01T01:58:48;0.10;99.90
25973;DHT22;13765;51.166;4.466;2023-03-01T02:01:17;0.00;99.90
25973;DHT22;13765;51.166;4.466;2023-03-01T02:03:47;0.10;99.90
25973;DHT22;13765;51.166;4.466;2023-03-01T02:09:00;0.00;99.90
25973;DHT22;13765;51.166;4.466;2023-03-01T02:11:30;0.10;99.90
25973;DHT22;13765;51.166;4.466;2023-03-01T02:13:56;0.00;99.90
25973;DHT22;13765;51.166;4.466;2023-03-01T02:16:22;0.00;99.90
25973;DHT22;13765;51.166;4.466;2023-03-01T02:18:49;0.00;99.90
25973;DHT22;13765;51.166;4.466;2023-03-01T02:24:05;-0.20;99.90
25973;DHT22;13765;51.166;4.466;2023-03-01T02:26:45;-0.20;99.90
25973;DHT22;13765;51.166;4.466;2023-03-01T02:29:14;-0.10;99.90
25973;DHT22;13765;51.166;4.466;2023-03-01T02:31:40;-0.20;99.90
25973;DHT22;13765;51.166;4.466;2023-03-01T02:34:13;-0.20;99.90
25973;DHT22;13765;51.166;4.466;2023-03-01T02:36:52;-0.20;99.90
25973;DHT22;13765;51.166;4.466;2023-03-01T02:39:25;-0.20;99.90
25973;DHT22;13765;51.166;4.466;2023-03-01T02:41:56;-0.20;99.90
25973;DHT22;13765;51.166;4.466;2023-03-01T02:44:22;-0.20;99.90
25973;DHT22;13765;51.166;4.466;2023-03-01T02:46:51;-0.30;99.90
25973;DHT22;13765;51.166;4.466;2023-03-01T02:49:33;-0.20;99.90
25973;DHT22;13765;51.166;4.466;2023-03-01T02:57:31;-0.30;99.90
25973;DHT22;13765;51.166;4.466;2023-03-01T03:00:03;-0.30;99.90
25973;DHT22;13765;51.166;4.466;2023-03-01T03:02:35;-0.30;99.90
25973;DHT22;13765;51.166;4.466;2023-03-01T03:05:28;-0.30;99.90
25973;DHT22;13765;51.166;4.466;2023-03-01T03:07:57;-0.40;99.90
25973;DHT22;13765;51.166;4.466;2023-03-01T03:10:28;-0.40;99.90
25973;DHT22;13765;51.166;4.466;2023-03-01T03:12:59;-0.40;99.90
25973;DHT22;13765;51.166;4.466;2023-03-01T03:15:30;-0.40;99.90
25973;DHT22;13765;51.166;4.466;2023-03-01T03:18:03;-0.30;99.90
25973;DHT22;13765;51.166;4.466;2023-03-01T03:20:29;-0.30;99.90
25973;DHT22;13765;51.166;4.466;2023-03-01T03:22:58;-0.30;99.90
25973;DHT22;13765;51.166;4.466;2023-03-01T03:25:25;-0.30;99.90
25973;DHT22;13765;51.166;4.466;2023-03-01T03:27:53;-0.20;99.90
25973;DHT22;13765;51.166;4.466;2023-03-01T03:30:27;-0.40;99.90
25973;DHT22;13765;51.166;4.466;2023-03-01T03:32:53;-0.20;99.90
25973;DHT22;13765;51.166;4.466;2023-03-01T03:35:30;-0.20;99.90
25973;DHT22;13765;51.166;4.466;2023-03-01T03:37:58;-0.30;99.90
25973;DHT22;13765;51.166;4.466;2023-03-01T03:40:35;-0.40;99.90
25973;DHT22;13765;51.166;4.466;2023-03-01T03:43:02;-0.40;99.90
25973;DHT22;13765;51.166;4.466;2023-03-01T03:45:30;-0.40;99.90
25973;DHT22;13765;51.166;4.466;2023-03-01T03:47:59;-0.30;99.90
25973;DHT22;13765;51.166;4.466;2023-03-01T03:50:27;-0.40;99.90
25973;DHT22;13765;51.166;4.466;2023-03-01T03:52:55;-0.30;99.90
25973;DHT22;13765;51.166;4.466;2023-03-01T03:55:25;-0.40;99.90
25973;DHT22;13765;51.166;4.466;2023-03-01T03:57:57;-0.40;99.90
25973;DHT22;13765;51.166;4.466;2023-03-01T04:00:23;-0.30;99.90
25973;DHT22;13765;51.166;4.466;2023-03-01T04:02:52;-0.30;99.90
25973;DHT22;13765;51.166;4.466;2023-03-01T04:05:22;-0.30;99.90
25973;DHT22;13765;51.166;4.466;2023-03-01T04:07:47;-0.40;99.90
25973;DHT22;13765;51.166;4.466;2023-03-01T04:10:17;-0.50;99.90
25973;DHT22;13765;51.166;4.466;2023-03-01T04:12:43;-0.50;99.90
25973;DHT22;13765;51.166;4.466;2023-03-01T04:15:10;-0.50;99.90
25973;DHT22;13765;51.166;4.466;2023-03-01T04:17:43;-0.40;99.90
25973;DHT22;13765;51.166;4.466;2023-03-01T04:20:11;-0.40;99.90
25973;DHT22;13765;51.166;4.466;2023-03-01T04:22:38;-0.50;99.90
25973;DHT22;13765;51.166;4.466;2023-03-01T04:25:13;-0.50;99.90
25973;DHT22;13765;51.166;4.466;2023-03-01T04:27:40;-0.60;99.90
25973;DHT22;13765;51.166;4.466;2023-03-01T04:30:06;-0.60;99.90
25973;DHT22;13765;51.166;4.466;2023-03-01T04:32:34;-0.50;99.90
25973;DHT22;13765;51.166;4.466;2023-03-01T04:35:00;-0.50;99.90
25973;DHT22;13765;51.166;4.466;2023-03-01T04:37:26;-0.50;99.90
25973;DHT22;13765;51.166;4.466;2023-03-01T04:39:52;-0.60;99.90
25973;DHT22;13765;51.166;4.466;2023-03-01T04:42:19;-0.50;99.90
25973;DHT22;13765;51.166;4.466;2023-03-01T04:44:45;-0.60;99.90
25973;DHT22;13765;51.166;4.466;2023-03-01T04:47:11;-0.60;99.90
25973;DHT22;13765;51.166;4.466;2023-03-01T04:49:38;-0.70;99.90
25973;DHT22;13765;51.166;4.466;2023-03-01T04:52:04;-0.70;99.90
25973;DHT22;13765;51.166;4.466;2023-03-01T04:54:34;-0.70;99.90
25973;DHT22;13765;51.166;4.466;2023-03-01T04:57:00;-0.60;99.90
25973;DHT22;13765;51.166;4.466;2023-03-01T04:59:27;-0.70;99.90
25973;DHT22;13765;51.166;4.466;2023-03-01T05:01:56;-0.70;99.90
25973;DHT22;13765;51.166;4.466;2023-03-01T05:04:27;-0.80;99.90
25973;DHT22;13765;51.166;4.466;2023-03-01T05:06:53;-0.80;99.90
25973;DHT22;13765;51.166;4.466;2023-03-01T05:09:21;-0.80;99.90
25973;DHT22;13765;51.166;4.466;2023-03-01T05:11:49;-0.80;99.90
25973;DHT22;13765;51.166;4.466;2023-03-01T05:14:17;-0.80;99.90
25973;DHT22;13765;51.166;4.466;2023-03-01T05:16:47;-0.80;99.90
25973;DHT22;13765;51.166;4.466;2023-03-01T05:19:12;-0.80;99.90
25973;DHT22;13765;51.166;4.466;2023-03-01T05:21:41;-0.90;99.90
25973;DHT22;13765;51.166;4.466;2023-03-01T05:24:28;-0.90;99.90
25973;DHT22;13765;51.166;4.466;2023-03-01T05:26:54;-0.80;99.90
25973;DHT22;13765;51.166;4.466;2023-03-01T05:29:21;-0.90;99.90
25973;DHT22;13765;51.166;4.466;2023-03-01T05:32:00;-0.90;99.90
25973;DHT22;13765;51.166;4.466;2023-03-01T05:34:32;-1.00;99.90
25973;DHT22;13765;51.166;4.466;2023-03-01T05:36:58;-1.10;99.90
25973;DHT22;13765;51.166;4.466;2023-03-01T05:39:25;-1.10;99.90
25973;DHT22;13765;51.166;4.466;2023-03-01T05:41:56;-1.10;99.90
25973;DHT22;13765;51.166;4.466;2023-03-01T05:44:25;-1.10;99.90
25973;DHT22;13765;51.166;4.466;2023-03-01T05:46:54;-1.10;99.90
25973;DHT22;13765;51.166;4.466;2023-03-01T05:49:20;-1.10;99.90
25973;DHT22;13765;51.166;4.466;2023-03-01T05:51:50;-1.00;99.90
25973;DHT22;13765;51.166;4.466;2023-03-01T05:54:17;-1.10;99.90
25973;DHT22;13765;51.166;4.466;2023-03-01T05:56:45;-1.10;99.90
25973;DHT22;13765;51.166;4.466;2023-03-01T05:59:14;-1.00;99.90
25973;DHT22;13765;51.166;4.466;2023-03-01T06:01:41;-0.90;99.90
25973;DHT22;13765;51.166;4.466;2023-03-01T06:04:10;-1.00;99.90
25973;DHT22;13765;51.166;4.466;2023-03-01T06:06:38;-1.10;99.90
25973;DHT22;13765;51.166;4.466;2023-03-01T06:09:05;-1.00;99.90
25973;DHT22;13765;51.166;4.466;2023-03-01T06:11:34;-1.00;99.90
25973;DHT22;13765;51.166;4.466;2023-03-01T06:14:00;-1.10;99.90
25973;DHT22;13765;51.166;4.466;2023-03-01T06:16:28;-1.10;99.90
25973;DHT22;13765;51.166;4.466;2023-03-01T06:18:58;-1.10;99.90
25973;DHT22;13765;51.166;4.466;2023-03-01T06:21:24;-1.10;99.90
25973;DHT22;13765;51.166;4.466;2023-03-01T06:23:50;-1.10;99.90
25973;DHT22;13765;51.166;4.466;2023-03-01T06:26:15;-1.10;99.90
25973;DHT22;13765;51.166;4.466;2023-03-01T06:28:43;-1.00;99.90
25973;DHT22;13765;51.166;4.466;2023-03-01T06:31:13;-1.10;99.90
25973;DHT22;13765;51.166;4.466;2023-03-01T06:33:39;-1.10;99.90
25973;DHT22;13765;51.166;4.466;2023-03-01T06:36:06;-1.10;99.90
25973;DHT22;13765;51.166;4.466;2023-03-01T06:38:31;-1.10;99.90
25973;DHT22;13765;51.166;4.466;2023-03-01T06:40:57;-1.10;99.90
25973;DHT22;13765;51.166;4.466;2023-03-01T06:43:23;-1.10;99.90
25973;DHT22;13765;51.166;4.466;2023-03-01T06:45:54;-1.20;99.90
25973;DHT22;13765;51.166;4.466;2023-03-01T06:48:24;-1.10;99.90
25973;DHT22;13765;51.166;4.466;2023-03-01T06:50:50;-1.10;99.90
25973;DHT22;13765;51.166;4.466;2023-03-01T06:53:18;-1.10;99.90
25973;DHT22;13765;51.166;4.466;2023-03-01T06:55:46;-1.10;99.90
25973;DHT22;13765;51.166;4.466;2023-03-01T06:58:14;-1.00;99.90
25973;DHT22;13765;51.166;4.466;2023-03-01T07:00:39;-1.00;99.90
25973;DHT22;13765;51.166;4.466;2023-03-01T07:03:09;-1.00;99.90
25973;DHT22;13765;51.166;4.466;2023-03-01T07:05:34;-1.00;99.90
25973;DHT22;13765;51.166;4.466;2023-03-01T07:08:04;-1.00;99.90
25973;DHT22;13765;51.166;4.466;2023-03-01T07:10:30;-0.90;99.90
25973;DHT22;13765;51.166;4.466;2023-03-01T07:12:59;-0.90;99.90
25973;DHT22;13765;51.166;4.466;2023-03-01T07:15:27;-0.80;99.90
25973;DHT22;13765;51.166;4.466;2023-03-01T07:17:56;-0.70;99.90
25973;DHT22;13765;51.166;4.466;2023-03-01T07:20:24;-0.60;99.90
25973;DHT22;13765;51.166;4.466;2023-03-01T07:22:53;-0.50;99.90
25973;DHT22;13765;51.166;4.466;2023-03-01T07:25:19;-0.40;99.90
25973;DHT22;13765;51.166;4.466;2023-03-01T07:27:54;-0.50;99.90
25973;DHT22;13765;51.166;4.466;2023-03-01T07:30:20;-0.30;99.90
25973;DHT22;13765;51.166;4.466;2023-03-01T07:32:51;-0.30;99.90
25973;DHT22;13765;51.166;4.466;2023-03-01T07:35:19;-0.30;99.90
25973;DHT22;13765;51.166;4.466;2023-03-01T07:37:47;-0.20;99.90
25973;DHT22;13765;51.166;4.466;2023-03-01T07:40:15;0.10;99.90
25973;DHT22;13765;51.166;4.466;2023-03-01T07:42:45;0.10;99.90
25973;DHT22;13765;51.166;4.466;2023-03-01T07:45:11;0.20;99.90
25973;DHT22;13765;51.166;4.466;2023-03-01T07:47:37;0.20;99.90
25973;DHT22;13765;51.166;4.466;2023-03-01T07:50:05;0.30;99.90
25973;DHT22;13765;51.166;4.466;2023-03-01T07:52:31;0.40;99.90
25973;DHT22;13765;51.166;4.466;2023-03-01T07:54:57;0.30;99.90
25973;DHT22;13765;51.166;4.466;2023-03-01T07:57:23;0.40;99.90
25973;DHT22;13765;51.166;4.466;2023-03-01T07:59:49;0.60;99.90
25973;DHT22;13765;51.166;4.466;2023-03-01T08:02:14;0.70;99.90
25973;DHT22;13765;51.166;4.466;2023-03-01T08:04:41;0.70;99.90
25973;DHT22;13765;51.166;4.466;2023-03-01T08:07:07;0.80;99.90
25973;DHT22;13765;51.166;4.466;2023-03-01T08:09:35;0.90;99.90
25973;DHT22;13765;51.166;4.466;2023-03-01T08:12:03;1.00;99.90
25973;DHT22;13765;51.166;4.466;2023-03-01T08:14:30;1.00;99.90
25973;DHT22;13765;51.166;4.466;2023-03-01T08:16:58;1.10;99.90
25973;DHT22;13765;51.166;4.466;2023-03-01T08:19:24;1.00;99.90
25973;DHT22;13765;51.166;4.466;2023-03-01T08:21:53;1.10;99.90
25973;DHT22;13765;51.166;4.466;2023-03-01T08:24:19;1.20;99.90
25973;DHT22;13765;51.166;4.466;2023-03-01T08:26:46;1.20;99.90
25973;DHT22;13765;51.166;4.466;2023-03-01T08:29:14;1.20;99.90
25973;DHT22;13765;51.166;4.466;2023-03-01T08:31:42;1.30;99.90
25973;DHT22;13765;51.166;4.466;2023-03-01T08:34:14;1.40;99.90
25973;DHT22;13765;51.166;4.466;2023-03-01T08:36:43;1.40;99.90
25973;DHT22;13765;51.166;4.466;2023-03-01T08:39:12;1.50;99.90
25973;DHT22;13765;51.166;4.466;2023-03-01T08:41:38;1.80;99.90
25973;DHT22;13765;51.166;4.466;2023-03-01T08:44:05;1.80;99.90
25973;DHT22;13765;51.166;4.466;2023-03-01T08:46:36;1.80;99.90
25973;DHT22;13765;51.166;4.466;2023-03-01T08:49:05;1.80;99.90
25973;DHT22;13765;51.166;4.466;2023-03-01T08:51:34;1.90;99.90
25973;DHT22;13765;51.166;4.466;2023-03-01T08:54:09;2.00;99.90
25973;DHT22;13765;51.166;4.466;2023-03-01T08:56:40;2.20;99.90
25973;DHT22;13765;51.166;4.466;2023-03-01T08:59:07;2.20;99.90
25973;DHT22;13765;51.166;4.466;2023-03-01T09:01:33;2.30;99.90
25973;DHT22;13765;51.166;4.466;2023-03-01T09:04:04;2.40;99.90
25973;DHT22;13765;51.166;4.466;2023-03-01T09:06:31;2.60;99.90
25973;DHT22;13765;51.166;4.466;2023-03-01T09:08:58;2.90;99.90
25973;DHT22;13765;51.166;4.466;2023-03-01T09:11:29;3.10;99.90
25973;DHT22;13765;51.166;4.466;2023-03-01T09:13:55;3.30;99.90
25973;DHT22;13765;51.166;4.466;2023-03-01T09:16:21;3.40;99.90
25973;DHT22;13765;51.166;4.466;2023-03-01T09:18:52;3.60;99.90
25973;DHT22;13765;51.166;4.466;2023-03-01T09:21:20;3.90;99.90
25973;DHT22;13765;51.166;4.466;2023-03-01T09:23:48;3.90;99.90
25973;DHT22;13765;51.166;4.466;2023-03-01T09:26:20;4.00;99.90
25973;DHT22;13765;51.166;4.466;2023-03-01T09:28:53;4.10;99.90
25973;DHT22;13765;51.166;4.466;2023-03-01T09:31:20;4.10;99.90
25973;DHT22;13765;51.166;4.466;2023-03-01T09:33:51;4.20;99.90
25973;DHT22;13765;51.166;4.466;2023-03-01T09:36:19;4.30;99.90
25973;DHT22;13765;51.166;4.466;2023-03-01T09:38:46;4.40;99.90
25973;DHT22;13765;51.166;4.466;2023-03-01T09:43:50;4.40;99.90
25973;DHT22;13765;51.166;4.466;2023-03-01T09:46:20;4.40;99.90
25973;DHT22;13765;51.166;4.466;2023-03-01T09:48:59;4.40;99.90
25973;DHT22;13765;51.166;4.466;2023-03-01T09:51:34;4.70;99.90
25973;DHT22;13765;51.166;4.466;2023-03-01T09:54:03;4.60;99.90
25973;DHT22;13765;51.166;4.466;2023-03-01T09:56:44;4.90;99.90
25973;DHT22;13765;51.166;4.466;2023-03-01T10:02:16;5.00;99.90
25973;DHT22;13765;51.166;4.466;2023-03-01T10:04:48;5.30;99.90
25973;DHT22;13765;51.166;4.466;2023-03-01T10:10:07;5.50;99.90
25973;DHT22;13765;51.166;4.466;2023-03-01T10:12:37;5.40;99.90
25973;DHT22;13765;51.166;4.466;2023-03-01T10:18:31;5.60;99.90
25973;DHT22;13765;51.166;4.466;2023-03-01T10:21:00;5.50;99.90
25973;DHT22;13765;51.166;4.466;2023-03-01T10:23:35;5.60;99.90
25973;DHT22;13765;51.166;4.466;2023-03-01T10:29:06;5.70;99.90
25973;DHT22;13765;51.166;4.466;2023-03-01T10:31:50;5.70;99.90
25973;DHT22;13765;51.166;4.466;2023-03-01T10:34:29;5.90;99.90
25973;DHT22;13765;51.166;4.466;2023-03-01T10:37:17;5.80;99.90
25973;DHT22;13765;51.166;4.466;2023-03-01T10:40:08;5.80;99.90
25973;DHT22;13765;51.166;4.466;2023-03-01T10:42:58;5.90;99.90
25973;DHT22;13765;51.166;4.466;2023-03-01T10:48:18;5.80;99.90
25973;DHT22;13765;51.166;4.466;2023-03-01T10:51:04;5.90;99.90
25973;DHT22;13765;51.166;4.466;2023-03-01T10:53:40;6.10;99.90
25973;DHT22;13765;51.166;4.466;2023-03-01T10:56:11;6.20;99.90
25973;DHT22;13765;51.166;4.466;2023-03-01T10:58:41;6.30;99.90
25973;DHT22;13765;51.166;4.466;2023-03-01T11:01:29;6.30;99.90
25973;DHT22;13765;51.166;4.466;2023-03-01T11:06:42;6.20;99.90
25973;DHT22;13765;51.166;4.466;2023-03-01T11:09:24;6.40;99.90
25973;DHT22;13765;51.166;4.466;2023-03-01T11:11:57;6.10;99.90
25973;DHT22;13765;51.166;4.466;2023-03-01T11:14:24;6.20;99.90
25973;DHT22;13765;51.166;4.466;2023-03-01T11:20:23;6.20;99.90
25973;DHT22;13765;51.166;4.466;2023-03-01T11:22:53;6.30;99.90
25973;DHT22;13765;51.166;4.466;2023-03-01T11:25:26;6.40;99.90
25973;DHT22;13765;51.166;4.466;2023-03-01T11:27:53;6.50;99.90
25973;DHT22;13765;51.166;4.466;2023-03-01T11:30:39;6.50;99.90
25973;DHT22;13765;51.166;4.466;2023-03-01T11:36:44;7.00;99.90
25973;DHT22;13765;51.166;4.466;2023-03-01T11:39:42;7.40;99.90
25973;DHT22;13765;51.166;4.466;2023-03-01T11:42:34;7.20;99.90
25973;DHT22;13765;51.166;4.466;2023-03-01T11:45:05;7.30;99.90
25973;DHT22;13765;51.166;4.466;2023-03-01T11:48:23;7.20;99.90
25973;DHT22;13765;51.166;4.466;2023-03-01T11:50:45;7.40;99.90
25973;DHT22;13765;51.166;4.466;2023-03-01T11:56:04;7.40;99.90
25973;DHT22;13765;51.166;4.466;2023-03-01T12:01:09;7.70;99.90
25973;DHT22;13765;51.166;4.466;2023-03-01T12:25:56;8.30;99.90
25973;DHT22;13765;51.166;4.466;2023-03-01T12:31:38;8.50;99.90
25973;DHT22;13765;51.166;4.466;2023-03-01T12:34:18;8.40;99.90
25973;DHT22;13765;51.166;4.466;2023-03-01T12:37:21;8.10;99.90
25973;DHT22;13765;51.166;4.466;2023-03-01T12:39:58;8.00;99.90
25973;DHT22;13765;51.166;4.466;2023-03-01T12:48:24;8.70;99.90
25973;DHT22;13765;51.166;4.466;2023-03-01T12:50:45;8.90;99.90
25973;DHT22;13765;51.166;4.466;2023-03-01T12:56:00;9.10;99.90
25973;DHT22;13765;51.166;4.466;2023-03-01T12:58:47;9.00;99.90
25973;DHT22;13765;51.166;4.466;2023-03-01T13:11:57;8.20;99.90
25973;DHT22;13765;51.166;4.466;2023-03-01T13:16:53;7.90;99.90
25973;DHT22;13765;51.166;4.466;2023-03-01T13:19:23;7.90;99.90
25973;DHT22;13765;51.166;4.466;2023-03-01T13:21:51;8.00;99.90
25973;DHT22;13765;51.166;4.466;2023-03-01T13:24:33;8.10;99.90
25973;DHT22;13765;51.166;4.466;2023-03-01T13:29:48;7.80;99.90
25973;DHT22;13765;51.166;4.466;2023-03-01T13:37:28;7.60;99.90
25973;DHT22;13765;51.166;4.466;2023-03-01T13:39:56;7.50;99.90
25973;DHT22;13765;51.166;4.466;2023-03-01T13:42:41;7.60;99.90
25973;DHT22;13765;51.166;4.466;2023-03-01T13:47:56;7.90;99.90
25973;DHT22;13765;51.166;4.466;2023-03-01T13:50:25;7.90;99.90
25973;DHT22;13765;51.166;4.466;2023-03-01T13:55:41;7.70;99.90
25973;DHT22;13765;51.166;4.466;2023-03-01T14:01:03;7.50;99.90
25973;DHT22;13765;51.166;4.466;2023-03-01T14:03:31;7.50;99.90
25973;DHT22;13765;51.166;4.466;2023-03-01T14:06:14;7.50;99.90
25973;DHT22;13765;51.166;4.466;2023-03-01T14:08:47;7.50;99.90
25973;DHT22;13765;51.166;4.466;2023-03-01T14:11:43;7.60;99.90
25973;DHT22;13765;51.166;4.466;2023-03-01T14:14:59;7.80;99.90
25973;DHT22;13765;51.166;4.466;2023-03-01T14:19:47;7.90;99.90
25973;DHT22;13765;51.166;4.466;2023-03-01T14:24:56;8.00;99.90
25973;DHT22;13765;51.166;4.466;2023-03-01T14:27:38;8.10;99.90
25973;DHT22;13765;51.166;4.466;2023-03-01T14:32:56;8.10;99.90
25973;DHT22;13765;51.166;4.466;2023-03-01T14:35:33;8.10;99.90
25973;DHT22;13765;51.166;4.466;2023-03-01T14:38:05;8.10;99.90
25973;DHT22;13765;51.166;4.466;2023-03-01T14:40:37;8.10;99.90
25973;DHT22;13765;51.166;4.466;2023-03-01T14:43:11;8.20;99.90
25973;DHT22;13765;51.166;4.466;2023-03-01T14:45:49;8.20;99.90
25973;DHT22;13765;51.166;4.466;2023-03-01T14:48:15;8.20;99.90
25973;DHT22;13765;51.166;4.466;2023-03-01T14:50:47;8.20;99.90
25973;DHT22;13765;51.166;4.466;2023-03-01T14:53:23;8.10;99.90
25973;DHT22;13765;51.166;4.466;2023-03-01T14:55:54;8.00;99.90
25973;DHT22;13765;51.166;4.466;2023-03-01T14:58:24;8.00;99.90
25973;DHT22;13765;51.166;4.466;2023-03-01T15:00:58;8.00;99.90
25973;DHT22;13765;51.166;4.466;2023-03-01T15:03:25;7.90;99.90
25973;DHT22;13765;51.166;4.466;2023-03-01T15:05:53;7.90;99.90
25973;DHT22;13765;51.166;4.466;2023-03-01T15:08:24;7.90;99.90
25973;DHT22;13765;51.166;4.466;2023-03-01T15:11:19;7.90;99.90
25973;DHT22;13765;51.166;4.466;2023-03-01T15:13:47;7.80;99.90
25973;DHT22;13765;51.166;4.466;2023-03-01T15:16:16;7.90;99.90
25973;DHT22;13765;51.166;4.466;2023-03-01T15:18:58;7.80;99.90
25973;DHT22;13765;51.166;4.466;2023-03-01T15:21:34;7.80;99.90
25973;DHT22;13765;51.166;4.466;2023-03-01T15:26:52;7.80;99.90
25973;DHT22;13765;51.166;4.466;2023-03-01T15:29:25;7.80;99.90
25973;DHT22;13765;51.166;4.466;2023-03-01T15:37:00;7.60;99.90
25973;DHT22;13765;51.166;4.466;2023-03-01T15:39:42;7.70;99.90
25973;DHT22;13765;51.166;4.466;2023-03-01T15:45:31;7.60;99.90
25973;DHT22;13765;51.166;4.466;2023-03-01T15:48:04;7.70;99.90
25973;DHT22;13765;51.166;4.466;2023-03-01T15:50:34;7.70;99.90
25973;DHT22;13765;51.166;4.466;2023-03-01T15:53:08;7.80;99.90
25973;DHT22;13765;51.166;4.466;2023-03-01T15:55:36;7.70;99.90
25973;DHT22;13765;51.166;4.466;2023-03-01T15:58:22;7.70;99.90
25973;DHT22;13765;51.166;4.466;2023-03-01T16:00:48;7.60;99.90
25973;DHT22;13765;51.166;4.466;2023-03-01T16:03:17;7.60;99.90
25973;DHT22;13765;51.166;4.466;2023-03-01T16:05:47;7.50;99.90
25973;DHT22;13765;51.166;4.466;2023-03-01T16:08:14;7.50;99.90
25973;DHT22;13765;51.166;4.466;2023-03-01T16:10:41;7.50;99.90
25973;DHT22;13765;51.166;4.466;2023-03-01T16:13:12;7.30;99.90
25973;DHT22;13765;51.166;4.466;2023-03-01T16:15:38;7.40;99.90
25973;DHT22;13765;51.166;4.466;2023-03-01T16:18:05;7.20;99.90
25973;DHT22;13765;51.166;4.466;2023-03-01T16:20:32;7.10;99.90
25973;DHT22;13765;51.166;4.466;2023-03-01T16:22:59;7.20;99.90
25973;DHT22;13765;51.166;4.466;2023-03-01T16:25:28;7.30;99.90
25973;DHT22;13765;51.166;4.466;2023-03-01T16:27:54;7.20;99.90
25973;DHT22;13765;51.166;4.466;2023-03-01T16:30:23;7.10;99.90
25973;DHT22;13765;51.166;4.466;2023-03-01T16:32:49;7.10;99.90
25973;DHT22;13765;51.166;4.466;2023-03-01T16:35:18;6.90;99.90
25973;DHT22;13765;51.166;4.466;2023-03-01T16:37:44;6.90;99.90
25973;DHT22;13765;51.166;4.466;2023-03-01T16:40:28;6.80;99.90
25973;DHT22;13765;51.166;4.466;2023-03-01T16:42:54;6.80;99.90
25973;DHT22;13765;51.166;4.466;2023-03-01T16:45:25;6.70;99.90
25973;DHT22;13765;51.166;4.466;2023-03-01T16:47:53;6.80;99.90
25973;DHT22;13765;51.166;4.466;2023-03-01T16:50:19;6.70;99.90
25973;DHT22;13765;51.166;4.466;2023-03-01T16:52:46;6.80;99.90
25973;DHT22;13765;51.166;4.466;2023-03-01T16:55:12;6.70;99.90
25973;DHT22;13765;51.166;4.466;2023-03-01T16:57:38;6.60;99.90
25973;DHT22;13765;51.166;4.466;2023-03-01T17:00:08;6.60;99.90
25973;DHT22;13765;51.166;4.466;2023-03-01T17:02:38;6.60;99.90
25973;DHT22;13765;51.166;4.466;2023-03-01T17:05:07;6.50;99.90
25973;DHT22;13765;51.166;4.466;2023-03-01T17:07:36;6.50;99.90
25973;DHT22;13765;51.166;4.466;2023-03-01T17:10:03;6.40;99.90
25973;DHT22;13765;51.166;4.466;2023-03-01T17:12:34;6.40;99.90
25973;DHT22;13765;51.166;4.466;2023-03-01T17:15:02;6.40;99.90
25973;DHT22;13765;51.166;4.466;2023-03-01T17:17:29;6.30;99.90
25973;DHT22;13765;51.166;4.466;2023-03-01T17:19:57;6.30;99.90
25973;DHT22;13765;51.166;4.466;2023-03-01T17:22:22;6.30;99.90
25973;DHT22;13765;51.166;4.466;2023-03-01T17:24:50;6.20;99.90
25973;DHT22;13765;51.166;4.466;2023-03-01T17:27:18;6.10;99.90
25973;DHT22;13765;51.166;4.466;2023-03-01T17:29:44;6.10;99.90
25973;DHT22;13765;51.166;4.466;2023-03-01T17:32:12;6.10;99.90
25973;DHT22;13765;51.166;4.466;2023-03-01T17:34:38;6.00;99.90
25973;DHT22;13765;51.166;4.466;2023-03-01T17:37:04;6.00;99.90
25973;DHT22;13765;51.166;4.466;2023-03-01T17:39:34;6.00;99.90
25973;DHT22;13765;51.166;4.466;2023-03-01T17:42:01;5.90;99.90
25973;DHT22;13765;51.166;4.466;2023-03-01T17:44:30;5.80;99.90
25973;DHT22;13765;51.166;4.466;2023-03-01T17:46:56;5.70;99.90
25973;DHT22;13765;51.166;4.466;2023-03-01T17:49:24;5.60;99.90
25973;DHT22;13765;51.166;4.466;2023-03-01T17:51:52;5.60;99.90
25973;DHT22;13765;51.166;4.466;2023-03-01T17:54:18;5.60;99.90
25973;DHT22;13765;51.166;4.466;2023-03-01T17:56:43;5.50;99.90
25973;DHT22;13765;51.166;4.466;2023-03-01T17:59:13;5.30;99.90
25973;DHT22;13765;51.166;4.466;2023-03-01T18:01:40;5.20;99.90
25973;DHT22;13765;51.166;4.466;2023-03-01T18:04:07;5.30;99.90
25973;DHT22;13765;51.166;4.466;2023-03-01T18:06:36;5.20;99.90